sensor_id;sensor_type;location;lat;lon;timestamp;pressure;altitude;pressure_sealevel;temperature;humidity
66273;BME280;58450;52.150;4.466;2023-06-19T00:02:17;100728.22;;;22.06;100.00
66273;BME280;58450;52.150;4.466;2023-06-19T00:04:45;100732.50;;;21.86;100.00
66273;BME280;58450;52.150;4.466;2023-06-19T00:07:12;100737.72;;;21.88;100.00
66273;BME280;58450;52.150;4.466;2023-06-19T00:09:40;100725.69;;;21.94;100.00
66273;BME280;58450;52.150;4.466;2023-06-19T00:12:09;100727.84;;;21.87;100.00
66273;BME280;58450;52.150;4.466;2023-06-19T00:14:37;100723.44;;;21.85;100.00
66273;BME280;58450;52.150;4.466;2023-06-19T00:17:05;100728.66;;;21.82;100.00
66273;BME280;58450;52.150;4.466;2023-06-19T00:19:32;100727.75;;;21.71;100.00
66273;BME280;58450;52.150;4.466;2023-06-19T00:22:02;100754.97;;;21.45;100.00
66273;BME280;58450;52.150;4.466;2023-06-19T00:24:29;100737.06;;;21.32;100.00
66273;BME280;58450;52.150;4.466;2023-06-19T00:26:57;100736.03;;;21.44;100.00
66273;BME280;58450;52.150;4.466;2023-06-19T00:29:29;100741.41;;;21.28;100.00
66273;BME280;58450;52.150;4.466;2023-06-19T00:31:58;100738.38;;;21.24;100.00
66273;BME280;58450;52.150;4.466;2023-06-19T00:34:25;100745.53;;;20.98;100.00
66273;BME280;58450;52.150;4.466;2023-06-19T00:36:55;100751.72;;;20.88;100.00
66273;BME280;58450;52.150;4.466;2023-06-19T00:39:24;100760.44;;;20.85;100.00
66273;BME280;58450;52.150;4.466;2023-06-19T00:41:54;100749.25;;;20.87;100.00
66273;BME280;58450;52.150;4.466;2023-06-19T00:44:22;100743.56;;;20.66;100.00
66273;BME280;58450;52.150;4.466;2023-06-19T00:46:55;100746.16;;;20.78;100.00
66273;BME280;58450;52.150;4.466;2023-06-19T00:49:25;100740.16;;;20.81;100.00
66273;BME280;58450;52.150;4.466;2023-06-19T00:51:52;100748.22;;;20.65;100.00
66273;BME280;58450;52.150;4.466;2023-06-19T00:54:20;100757.59;;;20.75;100.00
66273;BME280;58450;52.150;4.466;2023-06-19T00:56:49;100753.97;;;20.69;100.00
66273;BME280;58450;52.150;4.466;2023-06-19T00:59:18;100752.69;;;20.77;100.00
66273;BME280;58450;52.150;4.466;2023-06-19T01:01:46;100757.63;;;20.52;100.00
66273;BME280;58450;52.150;4.466;2023-06-19T01:04:15;100749.38;;;20.47;100.00
66273;BME280;58450;52.150;4.466;2023-06-19T01:06:53;100761.44;;;20.51;100.00
66273;BME280;58450;52.150;4.466;2023-06-19T01:09:28;100745.31;;;20.50;100.00
66273;BME280;58450;52.150;4.466;2023-06-19T01:12:08;100764.75;;;20.53;100.00
66273;BME280;58450;52.150;4.466;2023-06-19T01:14:48;100758.00;;;20.61;100.00
66273;BME280;58450;52.150;4.466;2023-06-19T01:17:21;100757.91;;;20.51;100.00
66273;BME280;58450;52.150;4.466;2023-06-19T01:19:50;100754.03;;;20.47;100.00
66273;BME280;58450;52.150;4.466;2023-06-19T01:22:29;100749.41;;;20.52;100.00
66273;BME280;58450;52.150;4.466;2023-06-19T01:24:57;100756.75;;;20.47;100.00
66273;BME280;58450;52.150;4.466;2023-06-19T01:27:26;100758.81;;;20.62;100.00
66273;BME280;58450;52.150;4.466;2023-06-19T01:29:57;100779.38;;;20.64;100.00
66273;BME280;58450;52.150;4.466;2023-06-19T01:32:31;100754.34;;;20.28;100.00
66273;BME280;58450;52.150;4.466;2023-06-19T01:35:08;100755.28;;;20.39;100.00
66273;BME280;58450;52.150;4.466;2023-06-19T01:37:39;100752.59;;;20.44;100.00
66273;BME280;58450;52.150;4.466;2023-06-19T01:40:10;100749.66;;;20.23;100.00
66273;BME280;58450;52.150;4.466;2023-06-19T01:42:40;100748.75;;;20.18;100.00
66273;BME280;58450;52.150;4.466;2023-06-19T01:45:09;100749.81;;;20.17;100.00
66273;BME280;58450;52.150;4.466;2023-06-19T01:47:36;100753.56;;;20.11;100.00
66273;BME280;58450;52.150;4.466;2023-06-19T01:50:05;100745.13;;;20.12;100.00
66273;BME280;58450;52.150;4.466;2023-06-19T01:52:34;100742.00;;;20.03;100.00
66273;BME280;58450;52.150;4.466;2023-06-19T01:55:04;100738.03;;;20.11;100.00
66273;BME280;58450;52.150;4.466;2023-06-19T01:57:32;100744.22;;;20.06;100.00
66273;BME280;58450;52.150;4.466;2023-06-19T02:00:02;100743.78;;;20.15;100.00
66273;BME280;58450;52.150;4.466;2023-06-19T02:02:32;100744.50;;;20.05;100.00
66273;BME280;58450;52.150;4.466;2023-06-19T02:04:59;100746.31;;;19.99;100.00
66273;BME280;58450;52.150;4.466;2023-06-19T02:07:27;100732.28;;;20.13;100.00
66273;BME280;58450;52.150;4.466;2023-06-19T02:09:54;100742.66;;;20.11;100.00
66273;BME280;58450;52.150;4.466;2023-06-19T02:12:23;100749.00;;;20.16;100.00
66273;BME280;58450;52.150;4.466;2023-06-19T02:14:51;100741.91;;;20.15;100.00
66273;BME280;58450;52.150;4.466;2023-06-19T02:17:18;100737.25;;;20.16;100.00
66273;BME280;58450;52.150;4.466;2023-06-19T02:19:45;100748.69;;;20.13;100.00
66273;BME280;58450;52.150;4.466;2023-06-19T02:22:13;100740.31;;;20.19;100.00
66273;BME280;58450;52.150;4.466;2023-06-19T02:24:40;100746.34;;;20.21;100.00
66273;BME280;58450;52.150;4.466;2023-06-19T02:27:10;100752.50;;;20.12;100.00
66273;BME280;58450;52.150;4.466;2023-06-19T02:29:39;100759.66;;;19.96;100.00
66273;BME280;58450;52.150;4.466;2023-06-19T02:32:07;100762.41;;;19.96;100.00
66273;BME280;58450;52.150;4.466;2023-06-19T02:34:35;100764.66;;;19.82;100.00
66273;BME280;58450;52.150;4.466;2023-06-19T02:37:02;100765.72;;;19.81;100.00
66273;BME280;58450;52.150;4.466;2023-06-19T02:39:30;100767.81;;;19.73;100.00
66273;BME280;58450;52.150;4.466;2023-06-19T02:41:57;100776.00;;;19.73;100.00
66273;BME280;58450;52.150;4.466;2023-06-19T02:44:25;100776.50;;;19.70;100.00
66273;BME280;58450;52.150;4.466;2023-06-19T02:46:55;100777.81;;;19.51;100.00
66273;BME280;58450;52.150;4.466;2023-06-19T02:49:22;100800.72;;;19.49;100.00
66273;BME280;58450;52.150;4.466;2023-06-19T02:51:50;100789.06;;;19.54;100.00
66273;BME280;58450;52.150;4.466;2023-06-19T02:54:17;100797.59;;;19.41;100.00
66273;BME280;58450;52.150;4.466;2023-06-19T02:56:45;100801.47;;;19.62;100.00
66273;BME280;58450;52.150;4.466;2023-06-19T02:59:12;100816.03;;;19.51;100.00
66273;BME280;58450;52.150;4.466;2023-06-19T03:01:40;100801.22;;;19.46;100.00
66273;BME280;58450;52.150;4.466;2023-06-19T03:04:08;100825.69;;;19.41;100.00
66273;BME280;58450;52.150;4.466;2023-06-19T03:06:36;100819.84;;;19.32;100.00
66273;BME280;58450;52.150;4.466;2023-06-19T03:09:06;100829.22;;;19.25;100.00
66273;BME280;58450;52.150;4.466;2023-06-19T03:11:38;100828.63;;;19.05;100.00
66273;BME280;58450;52.150;4.466;2023-06-19T03:14:06;100834.56;;;19.02;100.00
66273;BME280;58450;52.150;4.466;2023-06-19T03:16:35;100827.69;;;19.00;100.00
66273;BME280;58450;52.150;4.466;2023-06-19T03:19:02;100844.06;;;19.00;100.00
66273;BME280;58450;52.150;4.466;2023-06-19T03:21:31;100838.31;;;18.84;100.00
66273;BME280;58450;52.150;4.466;2023-06-19T03:23:59;100852.03;;;18.89;100.00
66273;BME280;58450;52.150;4.466;2023-06-19T03:26:26;100851.25;;;18.77;100.00
66273;BME280;58450;52.150;4.466;2023-06-19T03:28:54;100869.28;;;18.66;100.00
66273;BME280;58450;52.150;4.466;2023-06-19T03:31:21;100847.25;;;18.56;100.00
66273;BME280;58450;52.150;4.466;2023-06-19T03:33:49;100862.91;;;18.60;100.00
66273;BME280;58450;52.150;4.466;2023-06-19T03:36:16;100871.81;;;18.44;100.00
66273;BME280;58450;52.150;4.466;2023-06-19T03:38:45;100890.78;;;18.39;100.00
66273;BME280;58450;52.150;4.466;2023-06-19T03:41:12;100875.97;;;18.46;100.00
66273;BME280;58450;52.150;4.466;2023-06-19T03:43:40;100875.75;;;18.36;100.00
66273;BME280;58450;52.150;4.466;2023-06-19T03:46:07;100891.16;;;18.19;100.00
66273;BME280;58450;52.150;4.466;2023-06-19T03:48:34;100885.09;;;18.28;100.00
66273;BME280;58450;52.150;4.466;2023-06-19T03:51:02;100908.66;;;18.23;100.00
66273;BME280;58450;52.150;4.466;2023-06-19T03:53:30;100905.91;;;18.11;100.00
66273;BME280;58450;52.150;4.466;2023-06-19T03:55:59;100915.88;;;18.17;100.00
66273;BME280;58450;52.150;4.466;2023-06-19T03:58:26;100906.28;;;18.26;100.00
66273;BME280;58450;52.150;4.466;2023-06-19T04:00:54;100924.75;;;18.24;100.00
66273;BME280;58450;52.150;4.466;2023-06-19T04:03:21;100924.06;;;18.29;100.00
66273;BME280;58450;52.150;4.466;2023-06-19T04:05:49;100931.88;;;18.25;100.00
66273;BME280;58450;52.150;4.466;2023-06-19T04:08:16;100929.75;;;18.27;100.00
66273;BME280;58450;52.150;4.466;2023-06-19T04:10:44;100948.81;;;18.15;100.00
66273;BME280;58450;52.150;4.466;2023-06-19T04:13:13;100936.84;;;18.05;100.00
66273;BME280;58450;52.150;4.466;2023-06-19T04:15:42;100944.06;;;18.11;100.00
66273;BME280;58450;52.150;4.466;2023-06-19T04:18:10;100933.41;;;18.09;100.00
66273;BME280;58450;52.150;4.466;2023-06-19T04:20:37;100942.19;;;18.11;100.00
66273;BME280;58450;52.150;4.466;2023-06-19T04:23:06;100943.19;;;17.98;100.00
66273;BME280;58450;52.150;4.466;2023-06-19T04:25:34;100958.63;;;18.05;100.00
66273;BME280;58450;52.150;4.466;2023-06-19T04:28:02;100953.78;;;18.07;100.00
66273;BME280;58450;52.150;4.466;2023-06-19T04:30:31;100964.22;;;18.10;100.00
66273;BME280;58450;52.150;4.466;2023-06-19T04:32:59;100961.72;;;18.08;100.00
66273;BME280;58450;52.150;4.466;2023-06-19T04:35:27;100967.28;;;18.13;100.00
66273;BME280;58450;52.150;4.466;2023-06-19T04:37:54;100993.56;;;18.20;100.00
66273;BME280;58450;52.150;4.466;2023-06-19T04:40:21;100974.38;;;18.14;100.00
66273;BME280;58450;52.150;4.466;2023-06-19T04:42:51;100973.91;;;18.17;100.00
66273;BME280;58450;52.150;4.466;2023-06-19T04:45:20;100983.16;;;18.05;100.00
66273;BME280;58450;52.150;4.466;2023-06-19T04:47:49;101000.69;;;18.09;100.00
66273;BME280;58450;52.150;4.466;2023-06-19T04:50:17;100999.38;;;18.11;100.00
66273;BME280;58450;52.150;4.466;2023-06-19T04:52:44;100989.41;;;18.05;100.00
66273;BME280;58450;52.150;4.466;2023-06-19T04:55:13;100998.63;;;18.04;100.00
66273;BME280;58450;52.150;4.466;2023-06-19T04:57:40;100996.03;;;18.09;100.00
66273;BME280;58450;52.150;4.466;2023-06-19T05:00:09;101019.03;;;18.13;100.00
66273;BME280;58450;52.150;4.466;2023-06-19T05:02:37;101009.06;;;18.19;100.00
66273;BME280;58450;52.150;4.466;2023-06-19T05:05:07;101005.28;;;18.20;100.00
66273;BME280;58450;52.150;4.466;2023-06-19T05:07:35;101030.72;;;18.02;100.00
66273;BME280;58450;52.150;4.466;2023-06-19T05:10:02;101010.38;;;18.05;100.00
66273;BME280;58450;52.150;4.466;2023-06-19T05:12:30;101023.88;;;18.11;100.00
66273;BME280;58450;52.150;4.466;2023-06-19T05:14:58;101023.28;;;18.21;100.00
66273;BME280;58450;52.150;4.466;2023-06-19T05:17:25;101022.81;;;18.12;100.00
66273;BME280;58450;52.150;4.466;2023-06-19T05:19:53;101033.06;;;17.98;100.00
66273;BME280;58450;52.150;4.466;2023-06-19T05:22:21;101036.00;;;17.97;100.00
66273;BME280;58450;52.150;4.466;2023-06-19T05:24:50;101054.88;;;17.80;100.00
66273;BME280;58450;52.150;4.466;2023-06-19T05:27:17;101038.31;;;17.81;100.00
66273;BME280;58450;52.150;4.466;2023-06-19T05:29:45;101051.78;;;17.76;100.00
66273;BME280;58450;52.150;4.466;2023-06-19T05:32:12;101055.56;;;17.75;100.00
66273;BME280;58450;52.150;4.466;2023-06-19T05:34:40;101062.31;;;17.72;100.00
66273;BME280;58450;52.150;4.466;2023-06-19T05:37:07;101059.44;;;17.67;100.00
66273;BME280;58450;52.150;4.466;2023-06-19T05:39:36;101065.59;;;17.63;100.00
66273;BME280;58450;52.150;4.466;2023-06-19T05:42:04;101068.75;;;17.60;100.00
66273;BME280;58450;52.150;4.466;2023-06-19T05:44:32;101094.06;;;17.60;100.00
66273;BME280;58450;52.150;4.466;2023-06-19T05:47:01;101072.69;;;17.45;100.00
66273;BME280;58450;52.150;4.466;2023-06-19T05:49:28;101076.69;;;17.24;100.00
66273;BME280;58450;52.150;4.466;2023-06-19T05:51:56;101083.34;;;17.28;100.00
66273;BME280;58450;52.150;4.466;2023-06-19T05:54:25;101099.88;;;17.08;100.00
66273;BME280;58450;52.150;4.466;2023-06-19T05:56:53;101090.38;;;17.17;100.00
66273;BME280;58450;52.150;4.466;2023-06-19T06:02:41;101094.72;;;16.99;100.00
66273;BME280;58450;52.150;4.466;2023-06-19T06:05:09;101125.47;;;17.00;100.00
66273;BME280;58450;52.150;4.466;2023-06-19T06:07:37;101113.03;;;16.86;100.00
66273;BME280;58450;52.150;4.466;2023-06-19T06:10:05;101106.91;;;16.90;100.00
66273;BME280;58450;52.150;4.466;2023-06-19T06:12:34;101105.75;;;16.79;100.00
66273;BME280;58450;52.150;4.466;2023-06-19T06:15:03;101119.69;;;16.90;100.00
66273;BME280;58450;52.150;4.466;2023-06-19T06:17:31;101126.53;;;16.92;100.00
66273;BME280;58450;52.150;4.466;2023-06-19T06:19:59;101137.41;;;16.92;100.00
66273;BME280;58450;52.150;4.466;2023-06-19T06:22:26;101136.56;;;16.98;100.00
66273;BME280;58450;52.150;4.466;2023-06-19T06:24:54;101142.25;;;16.90;100.00
66273;BME280;58450;52.150;4.466;2023-06-19T06:27:21;101148.00;;;16.75;100.00
66273;BME280;58450;52.150;4.466;2023-06-19T06:29:50;101134.59;;;16.80;100.00
66273;BME280;58450;52.150;4.466;2023-06-19T06:32:18;101144.19;;;16.83;100.00
66273;BME280;58450;52.150;4.466;2023-06-19T06:34:45;101152.88;;;16.98;100.00
66273;BME280;58450;52.150;4.466;2023-06-19T06:37:13;101157.25;;;16.99;100.00
66273;BME280;58450;52.150;4.466;2023-06-19T06:39:42;101166.97;;;17.14;100.00
66273;BME280;58450;52.150;4.466;2023-06-19T06:42:09;101174.19;;;17.02;100.00
66273;BME280;58450;52.150;4.466;2023-06-19T06:44:37;101162.97;;;17.17;100.00
66273;BME280;58450;52.150;4.466;2023-06-19T06:47:06;101163.63;;;17.12;100.00
66273;BME280;58450;52.150;4.466;2023-06-19T06:49:33;101162.53;;;17.38;100.00
66273;BME280;58450;52.150;4.466;2023-06-19T06:52:03;101170.28;;;17.60;100.00
66273;BME280;58450;52.150;4.466;2023-06-19T06:54:31;101160.13;;;17.49;100.00
66273;BME280;58450;52.150;4.466;2023-06-19T06:56:59;101169.81;;;17.82;100.00
66273;BME280;58450;52.150;4.466;2023-06-19T06:59:27;101180.25;;;17.66;100.00
66273;BME280;58450;52.150;4.466;2023-06-19T07:01:54;101175.06;;;17.65;100.00
66273;BME280;58450;52.150;4.466;2023-06-19T07:04:23;101175.19;;;17.88;100.00
66273;BME280;58450;52.150;4.466;2023-06-19T07:06:51;101184.22;;;18.08;100.00
66273;BME280;58450;52.150;4.466;2023-06-19T07:09:18;101185.00;;;17.90;100.00
66273;BME280;58450;52.150;4.466;2023-06-19T07:11:47;101190.38;;;17.96;100.00
66273;BME280;58450;52.150;4.466;2023-06-19T07:14:14;101189.25;;;18.23;100.00
66273;BME280;58450;52.150;4.466;2023-06-19T07:16:43;101205.75;;;18.09;100.00
66273;BME280;58450;52.150;4.466;2023-06-19T07:19:12;101211.16;;;17.91;100.00
66273;BME280;58450;52.150;4.466;2023-06-19T07:21:41;101208.22;;;18.11;100.00
66273;BME280;58450;52.150;4.466;2023-06-19T07:24:08;101205.50;;;18.11;100.00
66273;BME280;58450;52.150;4.466;2023-06-19T07:26:36;101215.28;;;18.00;100.00
66273;BME280;58450;52.150;4.466;2023-06-19T07:29:04;101199.69;;;18.07;100.00
66273;BME280;58450;52.150;4.466;2023-06-19T07:31:31;101203.38;;;18.13;100.00
66273;BME280;58450;52.150;4.466;2023-06-19T07:33:59;101213.31;;;18.26;100.00
66273;BME280;58450;52.150;4.466;2023-06-19T07:36:26;101205.94;;;18.26;100.00
66273;BME280;58450;52.150;4.466;2023-06-19T07:38:55;101217.91;;;18.56;100.00
66273;BME280;58450;52.150;4.466;2023-06-19T07:41:23;101209.16;;;18.54;100.00
66273;BME280;58450;52.150;4.466;2023-06-19T07:43:50;101219.22;;;18.53;100.00
66273;BME280;58450;52.150;4.466;2023-06-19T07:46:18;101210.47;;;18.33;100.00
66273;BME280;58450;52.150;4.466;2023-06-19T07:48:45;101221.44;;;18.44;100.00
66273;BME280;58450;52.150;4.466;2023-06-19T07:51:13;101221.31;;;18.39;100.00
66273;BME280;58450;52.150;4.466;2023-06-19T07:53:40;101220.41;;;18.27;100.00
66273;BME280;58450;52.150;4.466;2023-06-19T07:56:10;101230.44;;;18.45;100.00
66273;BME280;58450;52.150;4.466;2023-06-19T07:58:38;101228.13;;;18.60;100.00
66273;BME280;58450;52.150;4.466;2023-06-19T08:01:05;101237.41;;;18.71;100.00
66273;BME280;58450;52.150;4.466;2023-06-19T08:03:33;101238.56;;;18.64;100.00
66273;BME280;58450;52.150;4.466;2023-06-19T08:06:00;101231.06;;;18.59;100.00
66273;BME280;58450;52.150;4.466;2023-06-19T08:08:28;101231.53;;;18.25;100.00
66273;BME280;58450;52.150;4.466;2023-06-19T08:10:55;101237.38;;;18.29;100.00
66273;BME280;58450;52.150;4.466;2023-06-19T08:13:24;101245.25;;;18.49;100.00
66273;BME280;58450;52.150;4.466;2023-06-19T08:15:52;101246.63;;;18.70;100.00
66273;BME280;58450;52.150;4.466;2023-06-19T08:18:19;101240.81;;;18.97;100.00
66273;BME280;58450;52.150;4.466;2023-06-19T08:20:47;101240.44;;;18.94;100.00
66273;BME280;58450;52.150;4.466;2023-06-19T08:23:14;101240.09;;;19.02;100.00
66273;BME280;58450;52.150;4.466;2023-06-19T08:25:41;101249.06;;;19.21;100.00
66273;BME280;58450;52.150;4.466;2023-06-19T08:28:09;101246.47;;;19.62;100.00
66273;BME280;58450;52.150;4.466;2023-06-19T08:30:38;101253.56;;;19.75;100.00
66273;BME280;58450;52.150;4.466;2023-06-19T08:33:05;101248.00;;;19.58;100.00
66273;BME280;58450;52.150;4.466;2023-06-19T08:35:33;101260.34;;;19.48;100.00
66273;BME280;58450;52.150;4.466;2023-06-19T08:38:00;101270.28;;;19.31;100.00
66273;BME280;58450;52.150;4.466;2023-06-19T08:40:28;101265.50;;;19.02;100.00
66273;BME280;58450;52.150;4.466;2023-06-19T08:42:55;101273.91;;;19.01;100.00
66273;BME280;58450;52.150;4.466;2023-06-19T08:45:23;101273.47;;;19.16;100.00
66273;BME280;58450;52.150;4.466;2023-06-19T08:47:58;101273.00;;;19.19;100.00
66273;BME280;58450;52.150;4.466;2023-06-19T08:50:26;101278.69;;;19.17;100.00
66273;BME280;58450;52.150;4.466;2023-06-19T08:52:54;101276.22;;;19.28;100.00
66273;BME280;58450;52.150;4.466;2023-06-19T08:55:22;101271.69;;;19.22;100.00
66273;BME280;58450;52.150;4.466;2023-06-19T08:57:51;101278.38;;;19.61;100.00
66273;BME280;58450;52.150;4.466;2023-06-19T09:00:23;101285.13;;;19.47;100.00
66273;BME280;58450;52.150;4.466;2023-06-19T09:03:00;101281.94;;;19.26;100.00
66273;BME280;58450;52.150;4.466;2023-06-19T09:05:29;101283.25;;;19.36;100.00
66273;BME280;58450;52.150;4.466;2023-06-19T09:07:58;101281.59;;;19.46;100.00
66273;BME280;58450;52.150;4.466;2023-06-19T09:10:27;101270.66;;;19.46;100.00
66273;BME280;58450;52.150;4.466;2023-06-19T09:12:59;101277.91;;;19.53;100.00
66273;BME280;58450;52.150;4.466;2023-06-19T09:15:28;101280.19;;;19.91;100.00
66273;BME280;58450;52.150;4.466;2023-06-19T09:20:31;101299.16;;;19.51;100.00
66273;BME280;58450;52.150;4.466;2023-06-19T09:23:00;101310.75;;;19.46;100.00
66273;BME280;58450;52.150;4.466;2023-06-19T09:25:27;101310.91;;;19.75;100.00
66273;BME280;58450;52.150;4.466;2023-06-19T09:27:55;101316.97;;;20.13;100.00
66273;BME280;58450;52.150;4.466;2023-06-19T09:30:23;101305.19;;;20.24;100.00
66273;BME280;58450;52.150;4.466;2023-06-19T09:32:50;101303.63;;;20.69;100.00
66273;BME280;58450;52.150;4.466;2023-06-19T09:35:19;101308.56;;;20.55;100.00
66273;BME280;58450;52.150;4.466;2023-06-19T09:37:48;101315.44;;;20.58;100.00
66273;BME280;58450;52.150;4.466;2023-06-19T09:40:18;101312.22;;;20.20;100.00
66273;BME280;58450;52.150;4.466;2023-06-19T09:42:47;101313.06;;;20.61;100.00
66273;BME280;58450;52.150;4.466;2023-06-19T09:45:22;101317.06;;;20.71;100.00
66273;BME280;58450;52.150;4.466;2023-06-19T09:47:53;101329.97;;;20.58;100.00
66273;BME280;58450;52.150;4.466;2023-06-19T09:50:23;101334.81;;;20.97;100.00
66273;BME280;58450;52.150;4.466;2023-06-19T09:52:55;101323.03;;;20.96;100.00
66273;BME280;58450;52.150;4.466;2023-06-19T09:55:23;101327.16;;;21.79;100.00
66273;BME280;58450;52.150;4.466;2023-06-19T09:57:54;101330.25;;;21.66;100.00
66273;BME280;58450;52.150;4.466;2023-06-19T10:00:22;101318.28;;;21.72;100.00
66273;BME280;58450;52.150;4.466;2023-06-19T10:02:57;101331.16;;;21.89;100.00
66273;BME280;58450;52.150;4.466;2023-06-19T10:05:30;101333.97;;;21.43;100.00
66273;BME280;58450;52.150;4.466;2023-06-19T10:07:59;101327.66;;;21.59;100.00
66273;BME280;58450;52.150;4.466;2023-06-19T10:10:28;101337.31;;;20.99;100.00
66273;BME280;58450;52.150;4.466;2023-06-19T10:12:57;101326.31;;;21.10;100.00
66273;BME280;58450;52.150;4.466;2023-06-19T10:15:27;101325.44;;;21.73;100.00
66273;BME280;58450;52.150;4.466;2023-06-19T10:18:00;101343.41;;;22.42;100.00
66273;BME280;58450;52.150;4.466;2023-06-19T10:20:32;101345.91;;;21.88;100.00
66273;BME280;58450;52.150;4.466;2023-06-19T10:23:03;101347.03;;;21.69;100.00
66273;BME280;58450;52.150;4.466;2023-06-19T10:25:34;101348.59;;;21.65;100.00
66273;BME280;58450;52.150;4.466;2023-06-19T10:28:16;101334.47;;;22.52;100.00
66273;BME280;58450;52.150;4.466;2023-06-19T10:30:44;101335.97;;;22.43;100.00
66273;BME280;58450;52.150;4.466;2023-06-19T10:33:11;101341.13;;;22.17;100.00
66273;BME280;58450;52.150;4.466;2023-06-19T10:35:41;101349.63;;;22.38;100.00
66273;BME280;58450;52.150;4.466;2023-06-19T10:38:08;101346.13;;;22.42;100.00
66273;BME280;58450;52.150;4.466;2023-06-19T10:40:37;101341.41;;;22.16;100.00
66273;BME280;58450;52.150;4.466;2023-06-19T10:43:04;101331.00;;;22.84;100.00
66273;BME280;58450;52.150;4.466;2023-06-19T10:45:32;101334.28;;;23.09;100.00
66273;BME280;58450;52.150;4.466;2023-06-19T10:48:01;101334.72;;;23.00;100.00
66273;BME280;58450;52.150;4.466;2023-06-19T10:50:30;101341.13;;;23.11;100.00
66273;BME280;58450;52.150;4.466;2023-06-19T10:53:03;101331.75;;;22.52;100.00
66273;BME280;58450;52.150;4.466;2023-06-19T10:55:31;101342.75;;;22.35;100.00
66273;BME280;58450;52.150;4.466;2023-06-19T10:57:58;101334.63;;;22.23;100.00
66273;BME280;58450;52.150;4.466;2023-06-19T11:00:27;101340.91;;;22.85;100.00
66273;BME280;58450;52.150;4.466;2023-06-19T11:02:56;101333.31;;;22.26;100.00
66273;BME280;58450;52.150;4.466;2023-06-19T11:05:26;101322.72;;;22.12;100.00
66273;BME280;58450;52.150;4.466;2023-06-19T11:07:55;101336.22;;;22.58;100.00
66273;BME280;58450;52.150;4.466;2023-06-19T11:10:26;101313.75;;;23.49;100.00
66273;BME280;58450;52.150;4.466;2023-06-19T11:12:57;101338.00;;;22.48;100.00
66273;BME280;58450;52.150;4.466;2023-06-19T11:15:29;101316.44;;;22.84;100.00
66273;BME280;58450;52.150;4.466;2023-06-19T11:17:57;101314.31;;;23.18;100.00
66273;BME280;58450;52.150;4.466;2023-06-19T11:20:24;101314.63;;;23.22;100.00
66273;BME280;58450;52.150;4.466;2023-06-19T11:22:55;101322.88;;;23.55;100.00
66273;BME280;58450;52.150;4.466;2023-06-19T11:25:34;101315.28;;;23.29;100.00
66273;BME280;58450;52.150;4.466;2023-06-19T11:28:03;101317.78;;;23.36;100.00
66273;BME280;58450;52.150;4.466;2023-06-19T11:30:32;101316.56;;;22.94;100.00
66273;BME280;58450;52.150;4.466;2023-06-19T11:33:01;101303.00;;;23.42;100.00
66273;BME280;58450;52.150;4.466;2023-06-19T11:35:32;101319.47;;;24.23;100.00
66273;BME280;58450;52.150;4.466;2023-06-19T11:38:02;101312.81;;;24.83;100.00
66273;BME280;58450;52.150;4.466;2023-06-19T11:40:39;101326.34;;;25.15;100.00
66273;BME280;58450;52.150;4.466;2023-06-19T11:43:07;101318.91;;;25.16;100.00
66273;BME280;58450;52.150;4.466;2023-06-19T11:45:45;101323.34;;;24.32;100.00
66273;BME280;58450;52.150;4.466;2023-06-19T11:48:21;101316.06;;;24.05;100.00
66273;BME280;58450;52.150;4.466;2023-06-19T11:50:50;101325.56;;;23.87;100.00
66273;BME280;58450;52.150;4.466;2023-06-19T11:53:19;101329.91;;;23.78;100.00
66273;BME280;58450;52.150;4.466;2023-06-19T11:55:48;101329.94;;;23.83;100.00
66273;BME280;58450;52.150;4.466;2023-06-19T11:58:16;101330.63;;;24.01;100.00
66273;BME280;58450;52.150;4.466;2023-06-19T12:00:45;101343.41;;;23.47;100.00
66273;BME280;58450;52.150;4.466;2023-06-19T12:03:13;101330.78;;;24.37;100.00
66273;BME280;58450;52.150;4.466;2023-06-19T12:05:40;101337.03;;;23.74;100.00
66273;BME280;58450;52.150;4.466;2023-06-19T12:08:08;101335.59;;;24.62;100.00
66273;BME280;58450;52.150;4.466;2023-06-19T12:10:35;101340.81;;;24.69;100.00
66273;BME280;58450;52.150;4.466;2023-06-19T12:13:04;101343.38;;;24.91;100.00
66273;BME280;58450;52.150;4.466;2023-06-19T12:15:32;101344.75;;;24.20;100.00
66273;BME280;58450;52.150;4.466;2023-06-19T12:17:59;101338.91;;;24.75;100.00
66273;BME280;58450;52.150;4.466;2023-06-19T12:20:26;101345.06;;;25.08;100.00
66273;BME280;58450;52.150;4.466;2023-06-19T12:22:54;101342.22;;;24.77;100.00
66273;BME280;58450;52.150;4.466;2023-06-19T12:25:22;101345.16;;;24.55;100.00
66273;BME280;58450;52.150;4.466;2023-06-19T12:27:49;101339.66;;;24.49;100.00
66273;BME280;58450;52.150;4.466;2023-06-19T12:30:19;101335.19;;;25.59;100.00
66273;BME280;58450;52.150;4.466;2023-06-19T12:32:46;101344.06;;;26.47;99.07
66273;BME280;58450;52.150;4.466;2023-06-19T12:35:15;101351.13;;;25.82;97.67
66273;BME280;58450;52.150;4.466;2023-06-19T12:37:44;101355.47;;;24.85;100.00
66273;BME280;58450;52.150;4.466;2023-06-19T12:40:11;101346.44;;;25.42;100.00
66273;BME280;58450;52.150;4.466;2023-06-19T12:42:39;101342.72;;;26.45;97.29
66273;BME280;58450;52.150;4.466;2023-06-19T12:45:07;101348.75;;;27.02;92.24
66273;BME280;58450;52.150;4.466;2023-06-19T12:47:37;101351.00;;;26.45;93.51
66273;BME280;58450;52.150;4.466;2023-06-19T12:50:05;101350.06;;;27.15;93.98
66273;BME280;58450;52.150;4.466;2023-06-19T12:52:33;101353.00;;;26.89;93.32
66273;BME280;58450;52.150;4.466;2023-06-19T12:55:00;101351.84;;;26.40;93.08